sensor_id;sensor_type;location;lat;lon;timestamp;P1;durP1;ratioP1;P2;durP2;ratioP2
26690;SDS011;14307;51.718;8.938;2023-04-03T00:00:16;21.08;;;19.25;;
26690;SDS011;14307;51.718;8.938;2023-04-03T00:02:43;19.23;;;17.92;;
26690;SDS011;14307;51.718;8.938;2023-04-03T00:05:10;20.52;;;18.95;;
26690;SDS011;14307;51.718;8.938;2023-04-03T00:07:37;19.73;;;18.33;;
26690;SDS011;14307;51.718;8.938;2023-04-03T00:10:04;19.83;;;18.30;;
26690;SDS011;14307;51.718;8.938;2023-04-03T00:12:31;19.45;;;17.98;;
26690;SDS011;14307;51.718;8.938;2023-04-03T00:14:57;19.15;;;17.85;;
26690;SDS011;14307;51.718;8.938;2023-04-03T00:17:25;19.20;;;17.63;;
26690;SDS011;14307;51.718;8.938;2023-04-03T00:19:51;19.08;;;17.58;;
26690;SDS011;14307;51.718;8.938;2023-04-03T00:22:18;19.45;;;17.92;;
26690;SDS011;14307;51.718;8.938;2023-04-03T00:24:45;19.60;;;18.10;;
26690;SDS011;14307;51.718;8.938;2023-04-03T00:27:11;20.13;;;18.23;;
26690;SDS011;14307;51.718;8.938;2023-04-03T00:29:38;19.02;;;17.30;;
26690;SDS011;14307;51.718;8.938;2023-04-03T00:32:05;19.27;;;17.42;;
26690;SDS011;14307;51.718;8.938;2023-04-03T00:34:31;20.27;;;18.23;;
26690;SDS011;14307;51.718;8.938;2023-04-03T00:36:58;19.85;;;18.02;;
26690;SDS011;14307;51.718;8.938;2023-04-03T00:39:25;19.05;;;17.45;;
26690;SDS011;14307;51.718;8.938;2023-04-03T00:41:52;18.67;;;17.08;;
26690;SDS011;14307;51.718;8.938;2023-04-03T00:45:21;19.85;;;17.98;;
26690;SDS011;14307;51.718;8.938;2023-04-03T00:47:07;21.45;;;17.58;;
26690;SDS011;14307;51.718;8.938;2023-04-03T00:49:37;19.70;;;17.88;;
26690;SDS011;14307;51.718;8.938;2023-04-03T00:52:05;19.48;;;17.77;;
26690;SDS011;14307;51.718;8.938;2023-04-03T00:54:35;19.33;;;17.50;;
26690;SDS011;14307;51.718;8.938;2023-04-03T00:57:03;17.85;;;16.83;;
26690;SDS011;14307;51.718;8.938;2023-04-03T00:59:34;19.33;;;17.67;;
26690;SDS011;14307;51.718;8.938;2023-04-03T01:02:04;18.52;;;17.10;;
26690;SDS011;14307;51.718;8.938;2023-04-03T01:04:33;18.00;;;16.67;;
26690;SDS011;14307;51.718;8.938;2023-04-03T01:07:27;18.80;;;17.08;;
26690;SDS011;14307;51.718;8.938;2023-04-03T01:09:59;18.48;;;16.98;;
26690;SDS011;14307;51.718;8.938;2023-04-03T01:12:29;19.45;;;17.70;;
26690;SDS011;14307;51.718;8.938;2023-04-03T01:15:01;18.33;;;16.83;;
26690;SDS011;14307;51.718;8.938;2023-04-03T01:25:42;17.40;;;16.10;;
26690;SDS011;14307;51.718;8.938;2023-04-03T01:28:21;17.48;;;15.75;;
26690;SDS011;14307;51.718;8.938;2023-04-03T01:30:53;17.20;;;15.88;;
26690;SDS011;14307;51.718;8.938;2023-04-03T01:33:26;20.35;;;15.75;;
26690;SDS011;14307;51.718;8.938;2023-04-03T01:35:53;18.13;;;16.55;;
26690;SDS011;14307;51.718;8.938;2023-04-03T01:38:20;18.40;;;16.45;;
26690;SDS011;14307;51.718;8.938;2023-04-03T01:40:47;17.08;;;15.57;;
26690;SDS011;14307;51.718;8.938;2023-04-03T01:43:14;20.65;;;16.05;;
26690;SDS011;14307;51.718;8.938;2023-04-03T01:45:41;16.83;;;15.73;;
26690;SDS011;14307;51.718;8.938;2023-04-03T01:48:07;19.35;;;17.23;;
26690;SDS011;14307;51.718;8.938;2023-04-03T01:50:34;17.90;;;16.10;;
26690;SDS011;14307;51.718;8.938;2023-04-03T01:53:01;17.33;;;15.82;;
26690;SDS011;14307;51.718;8.938;2023-04-03T01:55:28;16.83;;;15.57;;
26690;SDS011;14307;51.718;8.938;2023-04-03T01:57:54;16.95;;;15.65;;
26690;SDS011;14307;51.718;8.938;2023-04-03T02:00:21;20.30;;;17.80;;
26690;SDS011;14307;51.718;8.938;2023-04-03T02:02:49;17.77;;;16.05;;
26690;SDS011;14307;51.718;8.938;2023-04-03T02:05:16;17.17;;;15.60;;
26690;SDS011;14307;51.718;8.938;2023-04-03T02:07:42;17.20;;;15.50;;
26690;SDS011;14307;51.718;8.938;2023-04-03T02:10:09;17.95;;;16.33;;
26690;SDS011;14307;51.718;8.938;2023-04-03T02:12:36;17.33;;;15.70;;
26690;SDS011;14307;51.718;8.938;2023-04-03T02:15:03;17.55;;;15.98;;
26690;SDS011;14307;51.718;8.938;2023-04-03T02:17:30;18.10;;;16.58;;
26690;SDS011;14307;51.718;8.938;2023-04-03T02:19:57;18.10;;;16.52;;
26690;SDS011;14307;51.718;8.938;2023-04-03T02:22:24;17.42;;;15.85;;
26690;SDS011;14307;51.718;8.938;2023-04-03T02:24:51;17.35;;;15.82;;
26690;SDS011;14307;51.718;8.938;2023-04-03T02:27:19;17.38;;;15.73;;
26690;SDS011;14307;51.718;8.938;2023-04-03T02:29:47;18.10;;;16.38;;
26690;SDS011;14307;51.718;8.938;2023-04-03T02:32:14;17.75;;;16.17;;
26690;SDS011;14307;51.718;8.938;2023-04-03T02:34:41;18.13;;;16.60;;
26690;SDS011;14307;51.718;8.938;2023-04-03T02:37:11;17.20;;;15.75;;
26690;SDS011;14307;51.718;8.938;2023-04-03T02:39:38;17.92;;;16.08;;
26690;SDS011;14307;51.718;8.938;2023-04-03T02:42:05;16.98;;;15.55;;
26690;SDS011;14307;51.718;8.938;2023-04-03T02:44:33;16.67;;;15.23;;
26690;SDS011;14307;51.718;8.938;2023-04-03T02:47:00;16.73;;;15.63;;
26690;SDS011;14307;51.718;8.938;2023-04-03T02:49:26;16.67;;;15.07;;
26690;SDS011;14307;51.718;8.938;2023-04-03T02:51:53;15.85;;;14.70;;
26690;SDS011;14307;51.718;8.938;2023-04-03T02:54:19;16.52;;;15.02;;
26690;SDS011;14307;51.718;8.938;2023-04-03T02:56:50;17.52;;;15.80;;
26690;SDS011;14307;51.718;8.938;2023-04-03T02:59:17;21.58;;;15.55;;
26690;SDS011;14307;51.718;8.938;2023-04-03T03:01:44;18.92;;;17.00;;
26690;SDS011;14307;51.718;8.938;2023-04-03T03:04:11;17.50;;;16.08;;
26690;SDS011;14307;51.718;8.938;2023-04-03T03:06:38;17.27;;;15.65;;
26690;SDS011;14307;51.718;8.938;2023-04-03T03:09:05;18.63;;;16.70;;
26690;SDS011;14307;51.718;8.938;2023-04-03T03:11:32;18.45;;;16.83;;
26690;SDS011;14307;51.718;8.938;2023-04-03T03:13:59;16.85;;;15.55;;
26690;SDS011;14307;51.718;8.938;2023-04-03T03:16:26;18.05;;;16.23;;
26690;SDS011;14307;51.718;8.938;2023-04-03T03:18:53;17.70;;;16.10;;
26690;SDS011;14307;51.718;8.938;2023-04-03T03:21:20;16.88;;;15.68;;
26690;SDS011;14307;51.718;8.938;2023-04-03T03:23:46;15.70;;;14.65;;
26690;SDS011;14307;51.718;8.938;2023-04-03T03:26:13;15.93;;;14.65;;
26690;SDS011;14307;51.718;8.938;2023-04-03T03:28:40;16.77;;;15.45;;
26690;SDS011;14307;51.718;8.938;2023-04-03T03:31:07;15.38;;;14.38;;
26690;SDS011;14307;51.718;8.938;2023-04-03T03:33:36;16.85;;;15.07;;
26690;SDS011;14307;51.718;8.938;2023-04-03T03:36:03;16.27;;;15.05;;
26690;SDS011;14307;51.718;8.938;2023-04-03T03:38:30;17.10;;;15.55;;
26690;SDS011;14307;51.718;8.938;2023-04-03T03:40:58;17.08;;;15.73;;
26690;SDS011;14307;51.718;8.938;2023-04-03T03:43:27;17.55;;;16.00;;
26690;SDS011;14307;51.718;8.938;2023-04-03T03:45:54;17.35;;;15.57;;
26690;SDS011;14307;51.718;8.938;2023-04-03T03:48:22;16.80;;;15.50;;
26690;SDS011;14307;51.718;8.938;2023-04-03T03:50:50;16.70;;;15.45;;
26690;SDS011;14307;51.718;8.938;2023-04-03T03:53:19;16.50;;;15.20;;
26690;SDS011;14307;51.718;8.938;2023-04-03T03:55:50;16.52;;;15.10;;
26690;SDS011;14307;51.718;8.938;2023-04-03T03:58:20;16.70;;;15.18;;
26690;SDS011;14307;51.718;8.938;2023-04-03T04:00:47;16.08;;;14.73;;
26690;SDS011;14307;51.718;8.938;2023-04-03T04:03:14;16.75;;;15.20;;
26690;SDS011;14307;51.718;8.938;2023-04-03T04:05:43;16.00;;;14.77;;
26690;SDS011;14307;51.718;8.938;2023-04-03T04:08:10;15.48;;;14.18;;
26690;SDS011;14307;51.718;8.938;2023-04-03T04:10:38;16.25;;;14.43;;
26690;SDS011;14307;51.718;8.938;2023-04-03T04:13:06;14.85;;;13.80;;
26690;SDS011;14307;51.718;8.938;2023-04-03T04:15:33;16.35;;;14.05;;
26690;SDS011;14307;51.718;8.938;2023-04-03T04:18:00;15.95;;;14.75;;
26690;SDS011;14307;51.718;8.938;2023-04-03T04:20:28;17.42;;;15.75;;
26690;SDS011;14307;51.718;8.938;2023-04-03T04:22:55;17.50;;;15.77;;
26690;SDS011;14307;51.718;8.938;2023-04-03T04:25:23;16.23;;;15.13;;
26690;SDS011;14307;51.718;8.938;2023-04-03T04:27:49;16.38;;;15.02;;
26690;SDS011;14307;51.718;8.938;2023-04-03T04:30:16;20.63;;;15.38;;
26690;SDS011;14307;51.718;8.938;2023-04-03T04:32:46;17.30;;;15.73;;
26690;SDS011;14307;51.718;8.938;2023-04-03T04:35:13;17.13;;;15.48;;
26690;SDS011;14307;51.718;8.938;2023-04-03T04:37:44;25.33;;;15.43;;
26690;SDS011;14307;51.718;8.938;2023-04-03T04:40:12;17.67;;;15.63;;
26690;SDS011;14307;51.718;8.938;2023-04-03T04:42:38;17.42;;;15.50;;
26690;SDS011;14307;51.718;8.938;2023-04-03T04:45:06;17.25;;;15.70;;
26690;SDS011;14307;51.718;8.938;2023-04-03T04:47:34;18.35;;;16.80;;
26690;SDS011;14307;51.718;8.938;2023-04-03T04:50:01;16.77;;;15.45;;
26690;SDS011;14307;51.718;8.938;2023-04-03T04:52:30;16.13;;;14.93;;
26690;SDS011;14307;51.718;8.938;2023-04-03T04:54:57;16.48;;;14.70;;
26690;SDS011;14307;51.718;8.938;2023-04-03T04:57:24;17.45;;;15.70;;
26690;SDS011;14307;51.718;8.938;2023-04-03T04:59:51;16.52;;;14.90;;
26690;SDS011;14307;51.718;8.938;2023-04-03T05:02:19;17.00;;;15.38;;
26690;SDS011;14307;51.718;8.938;2023-04-03T05:04:45;16.60;;;15.02;;
26690;SDS011;14307;51.718;8.938;2023-04-03T05:07:18;16.38;;;14.82;;
26690;SDS011;14307;51.718;8.938;2023-04-03T05:09:45;21.02;;;18.77;;
26690;SDS011;14307;51.718;8.938;2023-04-03T05:12:13;17.23;;;16.00;;
26690;SDS011;14307;51.718;8.938;2023-04-03T05:14:46;16.70;;;15.30;;
26690;SDS011;14307;51.718;8.938;2023-04-03T05:17:12;16.88;;;15.55;;
26690;SDS011;14307;51.718;8.938;2023-04-03T05:19:44;16.58;;;15.45;;
26690;SDS011;14307;51.718;8.938;2023-04-03T05:22:11;18.48;;;17.05;;
26690;SDS011;14307;51.718;8.938;2023-04-03T05:24:38;19.55;;;18.10;;
26690;SDS011;14307;51.718;8.938;2023-04-03T05:27:06;19.83;;;17.98;;
26690;SDS011;14307;51.718;8.938;2023-04-03T05:29:36;18.65;;;17.13;;
26690;SDS011;14307;51.718;8.938;2023-04-03T05:32:04;18.98;;;17.60;;
26690;SDS011;14307;51.718;8.938;2023-04-03T05:34:31;20.35;;;18.25;;
26690;SDS011;14307;51.718;8.938;2023-04-03T05:36:58;20.60;;;17.98;;
26690;SDS011;14307;51.718;8.938;2023-04-03T05:39:26;22.00;;;18.05;;
26690;SDS011;14307;51.718;8.938;2023-04-03T05:41:53;19.23;;;17.50;;
26690;SDS011;14307;51.718;8.938;2023-04-03T05:44:20;21.00;;;16.77;;
26690;SDS011;14307;51.718;8.938;2023-04-03T05:46:48;19.17;;;17.40;;
26690;SDS011;14307;51.718;8.938;2023-04-03T05:49:15;19.42;;;17.52;;
26690;SDS011;14307;51.718;8.938;2023-04-03T05:51:42;18.25;;;16.75;;
26690;SDS011;14307;51.718;8.938;2023-04-03T05:54:26;18.90;;;17.25;;
26690;SDS011;14307;51.718;8.938;2023-04-03T05:57:04;19.50;;;17.80;;
26690;SDS011;14307;51.718;8.938;2023-04-03T05:59:31;23.77;;;17.75;;
26690;SDS011;14307;51.718;8.938;2023-04-03T06:01:59;19.17;;;17.50;;
26690;SDS011;14307;51.718;8.938;2023-04-03T06:04:27;19.92;;;17.80;;
26690;SDS011;14307;51.718;8.938;2023-04-03T06:06:54;18.75;;;17.52;;
26690;SDS011;14307;51.718;8.938;2023-04-03T06:09:25;21.20;;;19.17;;
26690;SDS011;14307;51.718;8.938;2023-04-03T06:11:54;19.83;;;18.02;;
26690;SDS011;14307;51.718;8.938;2023-04-03T06:14:23;25.17;;;22.75;;
26690;SDS011;14307;51.718;8.938;2023-04-03T06:16:50;38.70;;;31.20;;
26690;SDS011;14307;51.718;8.938;2023-04-03T06:19:18;21.35;;;19.77;;
26690;SDS011;14307;51.718;8.938;2023-04-03T06:21:49;20.67;;;18.73;;
26690;SDS011;14307;51.718;8.938;2023-04-03T06:24:16;22.20;;;20.30;;
26690;SDS011;14307;51.718;8.938;2023-04-03T06:26:43;22.88;;;18.48;;
26690;SDS011;14307;51.718;8.938;2023-04-03T06:29:10;21.63;;;19.77;;
26690;SDS011;14307;51.718;8.938;2023-04-03T06:31:37;21.55;;;19.95;;
26690;SDS011;14307;51.718;8.938;2023-04-03T06:34:04;26.27;;;24.52;;
26690;SDS011;14307;51.718;8.938;2023-04-03T06:36:34;24.52;;;22.77;;
26690;SDS011;14307;51.718;8.938;2023-04-03T06:39:01;26.77;;;24.70;;
26690;SDS011;14307;51.718;8.938;2023-04-03T06:41:29;27.60;;;25.48;;
26690;SDS011;14307;51.718;8.938;2023-04-03T06:43:56;22.52;;;20.75;;
26690;SDS011;14307;51.718;8.938;2023-04-03T06:46:24;21.73;;;20.23;;
26690;SDS011;14307;51.718;8.938;2023-04-03T06:48:52;23.48;;;21.52;;
26690;SDS011;14307;51.718;8.938;2023-04-03T06:53:49;25.45;;;23.50;;
26690;SDS011;14307;51.718;8.938;2023-04-03T06:56:16;23.83;;;22.15;;
26690;SDS011;14307;51.718;8.938;2023-04-03T06:58:44;26.65;;;24.77;;
26690;SDS011;14307;51.718;8.938;2023-04-03T07:01:11;26.50;;;24.50;;
26690;SDS011;14307;51.718;8.938;2023-04-03T07:03:40;28.40;;;26.40;;
26690;SDS011;14307;51.718;8.938;2023-04-03T07:06:08;24.85;;;23.38;;
26690;SDS011;14307;51.718;8.938;2023-04-03T07:08:37;30.42;;;28.27;;
26690;SDS011;14307;51.718;8.938;2023-04-03T07:11:05;30.05;;;28.08;;
26690;SDS011;14307;51.718;8.938;2023-04-03T07:13:32;30.13;;;28.20;;
26690;SDS011;14307;51.718;8.938;2023-04-03T07:15:59;32.25;;;29.83;;
26690;SDS011;14307;51.718;8.938;2023-04-03T07:18:26;33.38;;;31.38;;
26690;SDS011;14307;51.718;8.938;2023-04-03T07:20:53;33.03;;;31.05;;
26690;SDS011;14307;51.718;8.938;2023-04-03T07:23:19;33.05;;;30.90;;
26690;SDS011;14307;51.718;8.938;2023-04-03T07:25:47;33.97;;;31.65;;
26690;SDS011;14307;51.718;8.938;2023-04-03T07:28:15;32.03;;;29.42;;
26690;SDS011;14307;51.718;8.938;2023-04-03T07:30:46;31.95;;;29.73;;
26690;SDS011;14307;51.718;8.938;2023-04-03T07:33:16;31.48;;;29.48;;
26690;SDS011;14307;51.718;8.938;2023-04-03T07:35:44;31.85;;;28.85;;
26690;SDS011;14307;51.718;8.938;2023-04-03T07:38:11;32.85;;;30.65;;
26690;SDS011;14307;51.718;8.938;2023-04-03T07:40:39;32.10;;;30.30;;
26690;SDS011;14307;51.718;8.938;2023-04-03T07:43:06;35.92;;;33.72;;
26690;SDS011;14307;51.718;8.938;2023-04-03T07:45:34;33.42;;;31.30;;
26690;SDS011;14307;51.718;8.938;2023-04-03T07:48:02;33.55;;;31.50;;
26690;SDS011;14307;51.718;8.938;2023-04-03T07:50:29;34.22;;;31.90;;
26690;SDS011;14307;51.718;8.938;2023-04-03T07:52:57;34.38;;;32.28;;
26690;SDS011;14307;51.718;8.938;2023-04-03T07:55:24;36.22;;;33.85;;
26690;SDS011;14307;51.718;8.938;2023-04-03T07:57:51;35.63;;;33.47;;
26690;SDS011;14307;51.718;8.938;2023-04-03T08:00:18;36.25;;;34.17;;
26690;SDS011;14307;51.718;8.938;2023-04-03T08:02:45;35.78;;;33.80;;
26690;SDS011;14307;51.718;8.938;2023-04-03T08:05:18;35.05;;;32.95;;
26690;SDS011;14307;51.718;8.938;2023-04-03T08:07:45;35.03;;;33.13;;
26690;SDS011;14307;51.718;8.938;2023-04-03T08:10:13;35.70;;;33.70;;
26690;SDS011;14307;51.718;8.938;2023-04-03T08:12:41;36.05;;;34.05;;
26690;SDS011;14307;51.718;8.938;2023-04-03T08:15:08;35.75;;;33.85;;
26690;SDS011;14307;51.718;8.938;2023-04-03T08:17:35;36.55;;;34.53;;
26690;SDS011;14307;51.718;8.938;2023-04-03T08:20:04;36.17;;;33.75;;
26690;SDS011;14307;51.718;8.938;2023-04-03T08:22:33;37.65;;;35.30;;
26690;SDS011;14307;51.718;8.938;2023-04-03T08:25:00;35.78;;;33.42;;
26690;SDS011;14307;51.718;8.938;2023-04-03T08:27:27;38.50;;;36.00;;
26690;SDS011;14307;51.718;8.938;2023-04-03T08:29:56;37.38;;;34.97;;
26690;SDS011;14307;51.718;8.938;2023-04-03T08:32:23;37.70;;;35.13;;
26690;SDS011;14307;51.718;8.938;2023-04-03T08:34:50;34.28;;;32.28;;
26690;SDS011;14307;51.718;8.938;2023-04-03T08:37:17;35.55;;;33.50;;
26690;SDS011;14307;51.718;8.938;2023-04-03T08:39:43;34.83;;;32.78;;
26690;SDS011;14307;51.718;8.938;2023-04-03T08:42:15;35.10;;;32.80;;
26690;SDS011;14307;51.718;8.938;2023-04-03T08:44:59;36.47;;;34.35;;
26690;SDS011;14307;51.718;8.938;2023-04-03T08:47:40;35.70;;;33.70;;
26690;SDS011;14307;51.718;8.938;2023-04-03T08:50:14;37.85;;;35.65;;
26690;SDS011;14307;51.718;8.938;2023-04-03T08:52:52;36.45;;;34.55;;
26690;SDS011;14307;51.718;8.938;2023-04-03T08:55:26;38.58;;;36.17;;
26690;SDS011;14307;51.718;8.938;2023-04-03T08:58:02;36.50;;;34.15;;
26690;SDS011;14307;51.718;8.938;2023-04-03T09:00:31;34.88;;;32.70;;
26690;SDS011;14307;51.718;8.938;2023-04-03T09:03:10;35.42;;;33.03;;
26690;SDS011;14307;51.718;8.938;2023-04-03T09:05:51;33.83;;;31.90;;
26690;SDS011;14307;51.718;8.938;2023-04-03T09:08:43;33.20;;;30.98;;
26690;SDS011;14307;51.718;8.938;2023-04-03T09:12:15;33.08;;;30.67;;
26690;SDS011;14307;51.718;8.938;2023-04-03T09:14:34;31.80;;;29.67;;
26690;SDS011;14307;51.718;8.938;2023-04-03T09:17:13;31.35;;;29.13;;
26690;SDS011;14307;51.718;8.938;2023-04-03T09:20:06;31.55;;;29.27;;
26690;SDS011;14307;51.718;8.938;2023-04-03T09:22:45;31.27;;;29.23;;
26690;SDS011;14307;51.718;8.938;2023-04-03T09:25:27;30.30;;;28.30;;
26690;SDS011;14307;51.718;8.938;2023-04-03T09:27:59;31.35;;;29.45;;
26690;SDS011;14307;51.718;8.938;2023-04-03T09:30:27;36.70;;;34.40;;
26690;SDS011;14307;51.718;8.938;2023-04-03T09:32:55;31.75;;;29.90;;
26690;SDS011;14307;51.718;8.938;2023-04-03T09:35:28;34.13;;;31.73;;
26690;SDS011;14307;51.718;8.938;2023-04-03T09:40:42;38.20;;;35.78;;
26690;SDS011;14307;51.718;8.938;2023-04-03T09:43:22;38.63;;;36.25;;
26690;SDS011;14307;51.718;8.938;2023-04-03T09:45:50;36.25;;;34.25;;
26690;SDS011;14307;51.718;8.938;2023-04-03T09:48:27;35.25;;;33.15;;
26690;SDS011;14307;51.718;8.938;2023-04-03T09:50:55;36.85;;;34.70;;
26690;SDS011;14307;51.718;8.938;2023-04-03T09:53:37;41.85;;;39.13;;
26690;SDS011;14307;51.718;8.938;2023-04-03T09:58:43;35.50;;;33.40;;
26690;SDS011;14307;51.718;8.938;2023-04-03T10:04:16;39.42;;;37.17;;
26690;SDS011;14307;51.718;8.938;2023-04-03T10:06:46;40.87;;;38.67;;
26690;SDS011;14307;51.718;8.938;2023-04-03T10:09:24;40.13;;;37.83;;
26690;SDS011;14307;51.718;8.938;2023-04-03T10:12:11;39.03;;;36.92;;
26690;SDS011;14307;51.718;8.938;2023-04-03T10:14:53;39.90;;;37.67;;
26690;SDS011;14307;51.718;8.938;2023-04-03T10:20:30;42.15;;;39.55;;
26690;SDS011;14307;51.718;8.938;2023-04-03T10:23:17;41.10;;;38.90;;
26690;SDS011;14307;51.718;8.938;2023-04-03T10:26:01;45.08;;;42.67;;
26690;SDS011;14307;51.718;8.938;2023-04-03T10:28:45;42.95;;;40.65;;
26690;SDS011;14307;51.718;8.938;2023-04-03T10:39:36;38.33;;;36.33;;
26690;SDS011;14307;51.718;8.938;2023-04-03T10:47:25;37.75;;;35.40;;
26690;SDS011;14307;51.718;8.938;2023-04-03T10:52:58;38.63;;;36.20;;
26690;SDS011;14307;51.718;8.938;2023-04-03T10:55:36;40.92;;;38.72;;
26690;SDS011;14307;51.718;8.938;2023-04-03T10:58:18;37.08;;;35.03;;
26690;SDS011;14307;51.718;8.938;2023-04-03T11:00:51;43.58;;;40.72;;
26690;SDS011;14307;51.718;8.938;2023-04-03T11:03:24;44.17;;;41.58;;
26690;SDS011;14307;51.718;8.938;2023-04-03T11:05:53;41.95;;;39.42;;
26690;SDS011;14307;51.718;8.938;2023-04-03T11:11:22;47.90;;;44.92;;
26690;SDS011;14307;51.718;8.938;2023-04-03T11:14:03;41.85;;;39.65;;
26690;SDS011;14307;51.718;8.938;2023-04-03T11:16:47;52.28;;;49.33;;
26690;SDS011;14307;51.718;8.938;2023-04-03T11:19:20;45.55;;;43.10;;
26690;SDS011;14307;51.718;8.938;2023-04-03T11:25:05;49.75;;;46.95;;
26690;SDS011;14307;51.718;8.938;2023-04-03T11:27:43;46.78;;;44.28;;
26690;SDS011;14307;51.718;8.938;2023-04-03T11:36:24;47.38;;;44.78;;
26690;SDS011;14307;51.718;8.938;2023-04-03T11:39:07;43.45;;;40.75;;
26690;SDS011;14307;51.718;8.938;2023-04-03T11:41:41;41.63;;;39.30;;
26690;SDS011;14307;51.718;8.938;2023-04-03T11:47:00;53.50;;;50.55;;
26690;SDS011;14307;51.718;8.938;2023-04-03T11:58:01;43.13;;;40.58;;
26690;SDS011;14307;51.718;8.938;2023-04-03T12:05:53;51.17;;;48.42;;
26690;SDS011;14307;51.718;8.938;2023-04-03T12:08:47;38.70;;;36.35;;
26690;SDS011;14307;51.718;8.938;2023-04-03T12:11:28;39.67;;;36.85;;
26690;SDS011;14307;51.718;8.938;2023-04-03T12:51:19;39.78;;;37.38;;
26690;SDS011;14307;51.718;8.938;2023-04-03T12:54:02;44.85;;;42.10;;
26690;SDS011;14307;51.718;8.938;2023-04-03T12:56:39;44.03;;;41.40;;
26690;SDS011;14307;51.718;8.938;2023-04-03T12:59:16;45.00;;;42.35;;
26690;SDS011;14307;51.718;8.938;2023-04-03T13:01:55;43.78;;;41.13;;
26690;SDS011;14307;51.718;8.938;2023-04-03T13:04:23;46.42;;;43.92;;
26690;SDS011;14307;51.718;8.938;2023-04-03T13:06:51;47.80;;;45.03;;
26690;SDS011;14307;51.718;8.938;2023-04-03T13:09:22;48.60;;;46.00;;
26690;SDS011;14307;51.718;8.938;2023-04-03T13:11:56;46.95;;;44.05;;
26690;SDS011;14307;51.718;8.938;2023-04-03T13:14:26;45.20;;;42.28;;
26690;SDS011;14307;51.718;8.938;2023-04-03T13:17:12;40.70;;;38.38;;
26690;SDS011;14307;51.718;8.938;2023-04-03T13:19:41;41.10;;;38.47;;
26690;SDS011;14307;51.718;8.938;2023-04-03T13:22:11;40.03;;;37.42;;
26690;SDS011;14307;51.718;8.938;2023-04-03T13:24:42;41.40;;;39.10;;
26690;SDS011;14307;51.718;8.938;2023-04-03T13:27:13;42.63;;;40.22;;
26690;SDS011;14307;51.718;8.938;2023-04-03T13:29:40;42.92;;;40.35;;
26690;SDS011;14307;51.718;8.938;2023-04-03T13:32:07;43.83;;;41.40;;
26690;SDS011;14307;51.718;8.938;2023-04-03T13:34:46;46.40;;;43.78;;
26690;SDS011;14307;51.718;8.938;2023-04-03T13:37:27;40.75;;;38.42;;
26690;SDS011;14307;51.718;8.938;2023-04-03T13:40:04;43.45;;;40.92;;
26690;SDS011;14307;51.718;8.938;2023-04-03T13:42:39;43.65;;;41.15;;
26690;SDS011;14307;51.718;8.938;2023-04-03T13:45:17;43.97;;;41.17;;
26690;SDS011;14307;51.718;8.938;2023-04-03T13:48:08;44.47;;;41.95;;
26690;SDS011;14307;51.718;8.938;2023-04-03T13:51:32;45.65;;;42.83;;
26690;SDS011;14307;51.718;8.938;2023-04-03T13:53:59;44.90;;;42.40;;
26690;SDS011;14307;51.718;8.938;2023-04-03T13:56:33;42.95;;;40.45;;
26690;SDS011;14307;51.718;8.938;2023-04-03T14:04:27;45.92;;;43.35;;
26690;SDS011;14307;51.718;8.938;2023-04-03T14:06:59;46.75;;;44.05;;
26690;SDS011;14307;51.718;8.938;2023-04-03T14:09:27;47.92;;;45.33;;
26690;SDS011;14307;51.718;8.938;2023-04-03T14:11:55;44.88;;;41.95;;
26690;SDS011;14307;51.718;8.938;2023-04-03T14:14:27;44.15;;;41.30;;
26690;SDS011;14307;51.718;8.938;2023-04-03T14:16:58;45.00;;;42.40;;
26690;SDS011;14307;51.718;8.938;2023-04-03T14:19:30;43.45;;;40.97;;
26690;SDS011;14307;51.718;8.938;2023-04-03T14:22:03;42.35;;;39.75;;
26690;SDS011;14307;51.718;8.938;2023-04-03T14:24:54;44.58;;;41.60;;
26690;SDS011;14307;51.718;8.938;2023-04-03T14:27:29;43.95;;;41.55;;
26690;SDS011;14307;51.718;8.938;2023-04-03T14:30:00;45.75;;;43.10;;
26690;SDS011;14307;51.718;8.938;2023-04-03T14:32:29;44.97;;;41.95;;
26690;SDS011;14307;51.718;8.938;2023-04-03T14:34:56;47.05;;;44.28;;
26690;SDS011;14307;51.718;8.938;2023-04-03T14:37:25;46.13;;;43.47;;
26690;SDS011;14307;51.718;8.938;2023-04-03T14:39:55;45.78;;;43.17;;
26690;SDS011;14307;51.718;8.938;2023-04-03T14:42:26;46.20;;;43.50;;
26690;SDS011;14307;51.718;8.938;2023-04-03T14:44:58;44.13;;;41.42;;
26690;SDS011;14307;51.718;8.938;2023-04-03T14:47:26;34.55;;;32.53;;
26690;SDS011;14307;51.718;8.938;2023-04-03T14:50:01;44.60;;;42.00;;
26690;SDS011;14307;51.718;8.938;2023-04-03T14:52:30;45.78;;;43.28;;
26690;SDS011;14307;51.718;8.938;2023-04-03T14:54:58;42.33;;;39.88;;
26690;SDS011;14307;51.718;8.938;2023-04-03T14:57:27;44.53;;;41.83;;
26690;SDS011;14307;51.718;8.938;2023-04-03T14:59:55;42.03;;;39.30;;
26690;SDS011;14307;51.718;8.938;2023-04-03T15:04:56;43.33;;;40.92;;
26690;SDS011;14307;51.718;8.938;2023-04-03T15:07:25;48.15;;;45.55;;
26690;SDS011;14307;51.718;8.938;2023-04-03T15:09:54;47.92;;;45.05;;
26690;SDS011;14307;51.718;8.938;2023-04-03T15:12:24;48.40;;;45.63;;
26690;SDS011;14307;51.718;8.938;2023-04-03T15:14:51;47.13;;;44.22;;
26690;SDS011;14307;51.718;8.938;2023-04-03T15:17:27;47.47;;;44.53;;
26690;SDS011;14307;51.718;8.938;2023-04-03T15:19:53;43.97;;;41.47;;
26690;SDS011;14307;51.718;8.938;2023-04-03T15:22:20;45.80;;;42.90;;
26690;SDS011;14307;51.718;8.938;2023-04-03T15:24:47;42.95;;;40.25;;
26690;SDS011;14307;51.718;8.938;2023-04-03T15:27:14;51.65;;;48.80;;
26690;SDS011;14307;51.718;8.938;2023-04-03T15:29:42;38.67;;;36.30;;
26690;SDS011;14307;51.718;8.938;2023-04-03T15:32:10;46.53;;;43.92;;
26690;SDS011;14307;51.718;8.938;2023-04-03T15:34:37;46.72;;;44.17;;
26690;SDS011;14307;51.718;8.938;2023-04-03T15:37:05;44.90;;;42.28;;
26690;SDS011;14307;51.718;8.938;2023-04-03T15:39:31;47.17;;;44.40;;
26690;SDS011;14307;51.718;8.938;2023-04-03T15:41:58;46.17;;;43.33;;
26690;SDS011;14307;51.718;8.938;2023-04-03T15:44:34;44.70;;;41.67;;
26690;SDS011;14307;51.718;8.938;2023-04-03T15:47:01;43.70;;;41.20;;
26690;SDS011;14307;51.718;8.938;2023-04-03T15:49:28;44.22;;;41.33;;
26690;SDS011;14307;51.718;8.938;2023-04-03T15:51:55;44.80;;;42.05;;
26690;SDS011;14307;51.718;8.938;2023-04-03T15:54:22;40.92;;;38.17;;
26690;SDS011;14307;51.718;8.938;2023-04-03T15:56:51;45.35;;;42.55;;
26690;SDS011;14307;51.718;8.938;2023-04-03T15:59:18;39.00;;;36.35;;
26690;SDS011;14307;51.718;8.938;2023-04-03T16:01:45;48.95;;;46.25;;
26690;SDS011;14307;51.718;8.938;2023-04-03T16:04:12;49.58;;;46.17;;
26690;SDS011;14307;51.718;8.938;2023-04-03T16:06:41;47.58;;;44.72;;
26690;SDS011;14307;51.718;8.938;2023-04-03T16:09:08;46.38;;;43.63;;
26690;SDS011;14307;51.718;8.938;2023-04-03T16:11:36;45.15;;;42.55;;
26690;SDS011;14307;51.718;8.938;2023-04-03T16:14:05;44.42;;;41.50;;
26690;SDS011;14307;51.718;8.938;2023-04-03T16:16:33;43.75;;;41.15;;
26690;SDS011;14307;51.718;8.938;2023-04-03T16:19:00;45.25;;;42.45;;
26690;SDS011;14307;51.718;8.938;2023-04-03T16:21:27;43.80;;;40.97;;
26690;SDS011;14307;51.718;8.938;2023-04-03T16:23:56;43.08;;;40.45;;
26690;SDS011;14307;51.718;8.938;2023-04-03T16:26:24;43.53;;;40.63;;
26690;SDS011;14307;51.718;8.938;2023-04-03T16:28:52;40.35;;;37.95;;
26690;SDS011;14307;51.718;8.938;2023-04-03T16:31:19;44.58;;;41.83;;